Time;durP1;ratioP1;P1;durP2;ratioP2;P2;SDS_P1;SDS_P2;PMS_P1;PMS_P2;Temp;Humidity;BMP_temperature;BMP_pressure;BME280_temperature;BME280_humidity;BME280_pressure;Samples;Min_cycle;Max_cycle;Signal;HPM_P1;HPM_P2
2022/11/17 00:02:03;;;;;;;;;9.00;2.00;;;;;13.47;79.66;98336.09;5058481;28;46780;-45
2022/11/17 00:04:28;;;;;;;;;8.67;3.67;;;;;13.48;79.75;98317.19;5059185;28;45802;-48
2022/11/17 00:06:54;;;;;;;;;4.67;3.33;;;;;13.46;79.15;98315.75;5059023;28;45398;-43
2022/11/17 00:09:19;;;;;;;;;4.67;2.00;;;;;13.37;78.52;98291.22;5058821;28;46016;-47
2022/11/17 00:14:32;;;;;;;;;4.33;3.00;;;;;13.50;77.95;98316.13;5059016;28;45398;-47
2022/11/17 00:17:08;;;;;;;;;3.00;2.00;;;;;13.46;78.17;98307.75;5058964;28;45301;-46
2022/11/17 00:22:17;;;;;;;;;7.00;4.00;;;;;13.51;77.21;98320.44;5058471;28;45400;-47
2022/11/17 00:24:43;;;;;;;;;6.33;2.33;;;;;13.53;77.59;98313.03;5058758;28;45662;-47
2022/11/17 00:27:08;;;;;;;;;13.00;4.00;;;;;13.52;76.89;98319.38;5058949;28;45297;-46
2022/11/17 00:29:33;;;;;;;;;11.00;4.00;;;;;13.55;77.09;98318.94;5058545;28;45347;-47
2022/11/17 00:34:43;;;;;;;;;7.00;4.67;;;;;13.55;76.92;98322.41;5058549;28;45418;-46
2022/11/17 00:37:10;;;;;;;;;3.67;3.00;;;;;13.55;76.83;98359.00;5058672;28;45456;-46
2022/11/17 00:39:36;;;;;;;;;7.00;4.00;;;;;13.54;76.63;98341.34;5058272;28;45397;-45
2022/11/17 00:42:02;;;;;;;;;9.00;4.33;;;;;13.53;76.54;98337.88;5058181;28;45496;-48
2022/11/17 00:44:28;;;;;;;;;8.00;3.00;;;;;13.53;76.63;98334.38;5058527;28;45361;-46
2022/11/17 00:46:53;;;;;;;;;8.33;3.67;;;;;13.52;75.91;98332.72;5058531;28;45379;-46
2022/11/17 00:49:20;;;;;;;;;3.67;3.67;;;;;13.53;76.52;98331.72;5058089;28;45365;-45
2022/11/17 00:51:46;;;;;;;;;3.33;1.33;;;;;13.49;75.57;98326.00;5056604;28;45240;-46
2022/11/17 00:54:12;;;;;;;;;5.00;1.00;;;;;13.54;75.50;98344.84;5058252;28;45202;-44
2022/11/17 00:56:38;;;;;;;;;3.33;1.00;;;;;13.53;75.69;98342.41;5058551;28;45369;-47
2022/11/17 00:59:03;;;;;;;;;11.00;6.33;;;;;13.54;74.97;98338.69;5057837;28;45371;-45
2022/11/17 01:01:29;;;;;;;;;7.00;2.00;;;;;13.56;75.04;98318.69;5058298;28;45248;-46
2022/11/17 01:04:01;;;;;;;;;4.67;2.67;;;;;13.55;75.11;98335.78;5058036;28;45342;-47
2022/11/17 01:06:38;;;;;;;;;3.67;2.67;;;;;13.57;74.76;98325.69;5058116;28;45228;-47
2022/11/17 01:09:07;;;;;;;;;2.67;1.67;;;;;13.56;73.63;98331.25;5057470;28;47520;-45
2022/11/17 01:11:32;;;;;;;;;4.00;1.33;;;;;13.56;73.70;98328.56;5057841;28;45407;-47
2022/11/17 01:13:59;;;;;;;;;1.00;1.00;;;;;13.56;73.91;98339.25;5058163;28;45356;-48
2022/11/17 01:16:25;;;;;;;;;4.67;3.33;;;;;13.57;73.19;98341.72;5058158;28;45463;-46
2022/11/17 01:18:52;;;;;;;;;6.67;3.67;;;;;13.48;73.13;98316.34;5057852;28;45272;-46
2022/11/17 01:21:23;;;;;;;;;10.00;2.00;;;;;13.55;73.11;98345.66;5057776;28;45273;-45
2022/11/17 01:23:50;;;;;;;;;3.67;2.00;;;;;13.55;72.70;98335.78;5057837;28;45499;-44
2022/11/17 01:26:21;;;;;;;;;5.33;1.67;;;;;13.55;73.46;98335.78;5058024;28;45328;-49
2022/11/17 01:28:47;;;;;;;;;4.33;2.00;;;;;13.54;73.48;98362.72;5057940;28;45451;-46
2022/11/17 01:31:24;;;;;;;;;2.33;1.00;;;;;13.52;72.31;98354.91;5058131;28;45418;-45
2022/11/17 01:33:51;;;;;;;;;1.00;1.00;;;;;13.53;72.19;98350.41;5058289;28;45415;-45
2022/11/17 01:36:20;;;;;;;;;2.00;1.00;;;;;13.52;71.70;98370.94;5057980;28;45483;-46
2022/11/17 01:38:45;;;;;;;;;4.00;3.00;;;;;13.52;72.25;98373.63;5057543;28;46095;-48
2022/11/17 01:41:17;;;;;;;;;3.33;0.67;;;;;13.54;71.98;98400.94;5057472;28;45334;-47
2022/11/17 01:43:49;;;;;;;;;3.33;1.00;;;;;13.51;71.54;98393.34;5057391;28;45392;-46
2022/11/17 01:46:36;;;;;;;;;1.33;1.00;;;;;13.52;71.99;98405.66;5057742;28;45390;-44
2022/11/17 01:49:05;;;;;;;;;4.00;1.00;;;;;13.55;71.57;98393.72;5057364;28;46266;-45
2022/11/17 01:51:34;;;;;;;;;1.00;1.00;;;;;13.54;71.47;98387.56;5057409;28;45457;-46
2022/11/17 01:54:01;;;;;;;;;2.33;0.33;;;;;13.55;71.04;98404.41;5057265;28;45330;-44
2022/11/17 01:56:34;;;;;;;;;1.33;1.00;;;;;13.46;71.69;98387.88;5057505;28;45247;-47
2022/11/17 01:59:17;;;;;;;;;3.00;1.00;;;;;13.55;71.03;98385.72;5057407;28;46983;-45
2022/11/17 02:01:54;;;;;;;;;1.33;1.00;;;;;13.53;71.96;98401.97;5057220;28;45308;-45
2022/11/17 02:04:24;;;;;;;;;3.33;1.00;;;;;13.56;71.18;98419.41;5057074;28;45379;-46
2022/11/17 02:06:53;;;;;;;;;1.00;1.00;;;;;13.52;70.99;98418.22;5057356;28;45292;-47
2022/11/17 02:09:20;;;;;;;;;1.67;1.67;;;;;13.51;70.57;98420.06;5057115;28;46416;-46
2022/11/17 02:11:47;;;;;;;;;2.00;1.00;;;;;13.56;70.92;98414.88;5057003;28;45378;-47
2022/11/17 02:14:12;;;;;;;;;1.33;1.00;;;;;13.57;70.42;98421.88;5057321;28;45341;-45
2022/11/17 02:16:38;;;;;;;;;3.00;1.00;;;;;13.57;70.74;98426.38;5057438;28;45381;-47
2022/11/17 02:19:03;;;;;;;;;1.67;0.00;;;;;13.57;70.61;98435.22;5057190;28;46604;-44
2022/11/17 02:22:02;;;;;;;;;4.67;1.33;;;;;13.53;70.93;98428.69;5057054;28;45381;-46
2022/11/17 02:24:46;;;;;;;;;4.00;1.00;;;;;13.58;70.02;98428.03;5057436;28;45412;-45
2022/11/17 02:27:39;;;;;;;;;2.00;2.00;;;;;13.56;70.74;98425.56;5057359;28;45409;-45
2022/11/17 02:30:10;;;;;;;;;2.00;1.00;;;;;13.53;70.38;98427.88;5057331;28;46368;-46
2022/11/17 02:32:47;;;;;;;;;3.67;1.00;;;;;13.55;70.47;98436.47;5057416;28;45489;-45
2022/11/17 02:35:31;;;;;;;;;3.00;1.00;;;;;13.54;70.83;98446.34;5057177;28;45390;-46
2022/11/17 02:38:18;;;;;;;;;0.33;0.00;;;;;13.54;70.69;98422.28;5056991;28;45346;-46
2022/11/17 02:40:56;;;;;;;;;3.00;0.67;;;;;13.54;70.49;98445.53;5056350;28;47063;-46
2022/11/17 02:46:22;;;;;;;;;2.33;1.00;;;;;13.51;69.99;98449.44;5056733;28;45406;-47
2022/11/17 02:48:54;;;;;;;;;2.00;2.00;;;;;13.48;69.80;98449.88;5056639;28;45375;-47
2022/11/17 02:51:23;;;;;;;;;2.00;1.00;;;;;13.49;69.76;98451.53;5056496;28;46092;-44
2022/11/17 02:53:51;;;;;;;;;0.00;0.00;;;;;13.51;69.73;98448.63;5056285;28;45250;-48
2022/11/17 02:56:17;;;;;;;;;3.00;0.00;;;;;13.50;69.65;98452.34;5056273;28;45354;-50
2022/11/17 02:58:43;;;;;;;;;1.67;1.00;;;;;13.40;69.26;98456.34;5056791;28;45565;-46
2022/11/17 03:01:17;;;;;;;;;3.67;0.67;;;;;13.47;69.48;98459.75;5056279;28;46670;-44
2022/11/17 03:03:57;;;;;;;;;3.33;0.67;;;;;13.45;69.58;98464.50;5056404;28;45371;-46
2022/11/17 03:06:37;;;;;;;;;3.00;1.00;;;;;13.46;69.48;98468.00;5056623;28;45255;-44
2022/11/17 03:09:18;;;;;;;;;1.00;0.33;;;;;13.46;69.75;98466.13;5056595;28;45356;-47
2022/11/17 03:11:58;;;;;;;;;2.00;0.00;;;;;13.48;69.69;98471.25;5056377;28;45395;-47
2022/11/17 03:14:42;;;;;;;;;2.00;1.00;;;;;13.46;69.88;98495.50;5056276;28;45437;-48
2022/11/17 03:17:18;;;;;;;;;0.67;0.67;;;;;13.42;69.54;98499.66;5059804;28;45425;-45
2022/11/17 03:19:51;;;;;;;;;3.00;0.00;;;;;13.42;69.85;98506.84;5059939;28;45397;-46
2022/11/17 03:22:41;;;;;;;;;2.33;1.00;;;;;13.43;69.48;98511.16;5059525;28;46283;-46
2022/11/17 03:25:12;;;;;;;;;0.00;0.00;;;;;13.43;69.35;98511.97;5059498;28;45428;-45
2022/11/17 03:27:44;;;;;;;;;0.00;0.00;;;;;13.40;69.35;98508.91;5059673;28;45310;-44
2022/11/17 03:30:11;;;;;;;;;0.67;0.33;;;;;13.26;69.24;98502.88;5059937;28;45331;-44
2022/11/17 03:32:45;;;;;;;;;0.00;0.00;;;;;13.36;69.54;98518.44;5059388;28;46499;-45
2022/11/17 03:35:16;;;;;;;;;0.00;0.00;;;;;13.40;69.78;98543.63;5059359;28;45379;-43
2022/11/17 03:37:48;;;;;;;;;0.00;0.00;;;;;13.40;69.32;98538.28;5059339;28;45219;-45
2022/11/17 03:40:18;;;;;;;;;1.00;0.00;;;;;13.39;69.17;98539.34;5059839;28;45299;-48
2022/11/17 03:42:51;;;;;;;;;0.67;0.00;;;;;13.36;68.75;98548.63;5059122;28;46996;-45
2022/11/17 03:45:26;;;;;;;;;1.33;0.00;;;;;13.39;68.61;98550.84;5059337;28;45260;-45
2022/11/17 03:48:17;;;;;;;;;0.00;0.00;;;;;13.37;68.94;98554.78;5058954;28;45363;-47
2022/11/17 03:50:49;;;;;;;;;0.00;0.00;;;;;13.31;68.99;98551.09;5059405;28;45408;-46
2022/11/17 03:53:15;;;;;;;;;0.00;0.00;;;;;13.35;68.82;98556.84;5058948;28;46969;-46
2022/11/17 03:56:06;;;;;;;;;1.00;1.00;;;;;13.37;69.08;98565.47;5059145;28;45283;-44
2022/11/17 03:58:35;;;;;;;;;1.33;0.00;;;;;13.38;68.19;98577.78;5059126;28;45363;-47
2022/11/17 04:01:03;;;;;;;;;2.00;0.67;;;;;13.39;68.20;98580.22;5059359;28;45558;-45
2022/11/17 04:03:32;;;;;;;;;2.00;0.67;;;;;13.39;68.19;98596.22;5058917;28;46239;-44
2022/11/17 04:05:58;;;;;;;;;4.00;0.33;;;;;13.35;67.76;98603.03;5058292;28;45267;-44
2022/11/17 04:08:28;;;;;;;;;0.00;0.00;;;;;13.32;67.71;98597.34;5058962;28;45336;-43
2022/11/17 04:16:21;;;;;;;;;0.00;0.00;;;;;13.31;67.60;98623.19;5059086;28;45427;-44
2022/11/17 04:18:46;;;;;;;;;0.00;0.00;;;;;13.30;67.74;98631.44;5059004;28;45386;-44
2022/11/17 04:21:11;;;;;;;;;0.00;0.00;;;;;13.32;67.71;98629.38;5059046;28;45289;-44
2022/11/17 04:23:37;;;;;;;;;1.00;0.00;;;;;13.14;67.72;98598.03;5058554;28;45976;-46
2022/11/17 04:28:49;;;;;;;;;1.00;0.00;;;;;13.26;68.66;98627.56;5058816;28;45655;-47
2022/11/17 04:31:17;;;;;;;;;0.33;0.00;;;;;13.25;69.15;98632.09;5058991;28;45566;-46
2022/11/17 04:33:44;;;;;;;;;2.00;0.33;;;;;13.21;69.26;98641.53;5058390;28;48779;-45
2022/11/17 04:36:12;;;;;;;;;0.00;0.00;;;;;13.19;70.45;98625.75;5058556;28;45414;-44
2022/11/17 04:38:46;;;;;;;;;0.00;0.00;;;;;13.14;70.57;98640.75;5058527;28;45272;-47
2022/11/17 04:43:59;;;;;;;;;0.00;0.00;;;;;13.11;71.69;98651.88;5058180;28;45460;-45
2022/11/17 04:46:25;;;;;;;;;2.67;0.00;;;;;13.10;71.83;98658.22;5058477;28;45407;-47
2022/11/17 04:48:53;;;;;;;;;1.00;0.00;;;;;13.08;71.64;98662.97;5058412;28;45481;-43
2022/11/17 04:51:20;;;;;;;;;0.33;0.00;;;;;13.08;71.78;98668.31;5058623;28;45327;-45
2022/11/17 04:53:45;;;;;;;;;2.33;0.00;;;;;13.06;71.61;98683.69;5058122;28;46363;-47
2022/11/17 04:56:12;;;;;;;;;0.00;0.00;;;;;12.99;71.09;98679.22;5058233;28;45414;-43
2022/11/17 04:58:37;;;;;;;;;0.00;0.00;;;;;12.98;70.73;98679.44;5058511;28;45296;-46
2022/11/17 05:01:12;;;;;;;;;0.00;0.00;;;;;12.97;71.26;98678.59;5058694;28;45422;-44
2022/11/17 05:03:59;;;;;;;;;1.00;1.00;;;;;12.93;70.71;98692.59;5058140;28;46418;-45
2022/11/17 05:06:33;;;;;;;;;1.00;1.00;;;;;12.91;70.61;98690.13;5058118;28;45351;-46
2022/11/17 05:09:01;;;;;;;;;2.00;0.00;;;;;12.89;70.37;98694.03;5057978;28;45335;-44
2022/11/17 05:14:14;;;;;;;;;0.00;0.00;;;;;12.89;70.45;98708.22;5057948;28;45756;-47
2022/11/17 05:19:25;;;;;;;;;0.33;0.00;;;;;12.89;69.58;98702.03;5058039;28;45174;-45
2022/11/17 05:21:51;;;;;;;;;0.00;0.00;;;;;12.92;69.30;98717.63;5058288;28;45391;-45
2022/11/17 05:24:16;;;;;;;;;0.67;0.00;;;;;12.93;69.26;98719.28;5057381;28;45800;-44
2022/11/17 05:26:43;;;;;;;;;0.00;0.00;;;;;12.91;69.20;98724.00;5057881;28;45319;-46
2022/11/17 05:29:11;;;;;;;;;1.00;0.00;;;;;12.94;69.32;98734.28;5057925;28;45478;-47
2022/11/17 05:31:36;;;;;;;;;0.00;0.00;;;;;12.95;69.63;98735.91;5057967;28;45223;-44
2022/11/17 05:34:04;;;;;;;;;1.00;1.00;;;;;12.95;69.32;98738.56;5057683;28;47027;-46
2022/11/17 05:36:30;;;;;;;;;0.67;0.00;;;;;12.87;69.23;98715.59;5057632;28;45427;-43
2022/11/17 05:38:56;;;;;;;;;0.00;0.00;;;;;12.96;68.97;98737.53;5057149;28;45430;-47
2022/11/17 05:41:22;;;;;;;;;0.00;0.00;;;;;12.93;69.74;98736.09;5057930;28;45546;-44
2022/11/17 05:43:49;;;;;;;;;0.00;0.00;;;;;12.90;69.19;98741.06;5057106;28;46381;-46
2022/11/17 05:46:16;;;;;;;;;2.67;0.00;;;;;12.90;69.43;98759.75;5057525;28;45418;-43
2022/11/17 05:48:41;;;;;;;;;0.00;0.00;;;;;12.86;68.66;98755.84;5057361;28;45264;-45
2022/11/17 05:51:08;;;;;;;;;2.00;0.00;;;;;12.87;69.43;98757.50;5057701;28;45523;-45
2022/11/17 05:53:33;;;;;;;;;1.00;1.00;;;;;12.76;69.17;98744.78;5057285;28;45260;-45
2022/11/17 05:56:24;;;;;;;;;0.00;0.00;;;;;12.85;68.97;98759.53;5057289;28;45317;-44
2022/11/17 05:58:54;;;;;;;;;1.00;0.00;;;;;12.85;68.70;98754.19;5057455;28;45481;-45
2022/11/17 06:01:21;;;;;;;;;2.00;0.00;;;;;12.81;69.03;98750.31;5057580;28;45391;-48
2022/11/17 06:03:52;;;;;;;;;0.00;0.00;;;;;12.60;68.99;98728.22;5057051;28;46112;-45
2022/11/17 06:06:17;;;;;;;;;1.33;0.00;;;;;12.83;69.14;98769.59;5057162;28;45277;-47
2022/11/17 06:08:42;;;;;;;;;2.00;0.67;;;;;12.80;68.96;98773.50;5057008;28;45168;-46
2022/11/17 06:11:08;;;;;;;;;1.33;0.00;;;;;12.82;68.68;98787.47;5057458;28;45460;-46
2022/11/17 06:13:33;;;;;;;;;0.33;0.33;;;;;12.82;69.25;98776.78;5057203;28;46014;-46
2022/11/17 06:16:02;;;;;;;;;2.33;0.00;;;;;12.81;68.25;98790.31;5057307;28;45295;-47
2022/11/17 06:18:35;;;;;;;;;1.00;0.00;;;;;12.76;68.29;98782.13;5057393;28;45443;-47
2022/11/17 06:21:01;;;;;;;;;0.67;0.67;;;;;12.81;68.55;98785.00;5057457;28;45233;-46
2022/11/17 06:23:30;;;;;;;;;0.00;0.00;;;;;12.81;67.53;98790.31;5056849;28;45471;-43
2022/11/17 06:25:58;;;;;;;;;0.67;0.00;;;;;12.80;67.82;98791.38;5056849;28;45338;-45
2022/11/17 06:28:26;;;;;;;;;0.00;0.00;;;;;12.78;67.11;98786.25;5056908;28;45382;-46
2022/11/17 06:30:53;;;;;;;;;0.00;0.00;;;;;12.48;67.48;98735.22;5057285;28;45457;-48
2022/11/17 06:33:18;;;;;;;;;2.33;1.33;;;;;12.66;66.92;98766.56;5056612;28;45306;-46
2022/11/17 06:35:45;;;;;;;;;1.33;1.00;;;;;12.77;67.24;98781.94;5056802;28;45327;-44
2022/11/17 06:38:10;;;;;;;;;1.00;0.00;;;;;12.78;67.28;98796.91;5056964;28;45307;-47
2022/11/17 06:40:36;;;;;;;;;0.00;0.00;;;;;12.77;67.40;98795.28;5056761;28;45413;-46
2022/11/17 06:43:08;;;;;;;;;0.67;0.00;;;;;12.73;67.63;98789.53;5056912;28;45456;-46
2022/11/17 06:45:35;;;;;;;;;0.33;0.00;;;;;12.71;67.48;98791.59;5056806;28;45426;-44
2022/11/17 06:48:01;;;;;;;;;1.00;1.00;;;;;12.73;67.28;98800.22;5056657;28;45351;-46
2022/11/17 06:50:26;;;;;;;;;0.33;0.00;;;;;12.70;67.92;98807.81;5058689;28;45481;-45
2022/11/17 06:52:59;;;;;;;;;0.00;0.00;;;;;12.60;67.98;98773.56;5060237;28;46042;-45
2022/11/17 06:55:24;;;;;;;;;2.67;1.00;;;;;12.67;67.85;98779.69;5060118;28;45483;-45
2022/11/17 06:57:50;;;;;;;;;0.00;0.00;;;;;12.67;68.49;98798.34;5060697;28;45398;-46
2022/11/17 07:00:16;;;;;;;;;4.00;2.00;;;;;12.67;68.23;98808.22;5060535;28;45466;-47
2022/11/17 07:02:41;;;;;;;;;1.33;1.00;;;;;12.68;68.24;98799.19;5059939;28;46422;-45
2022/11/17 07:05:07;;;;;;;;;3.00;1.00;;;;;12.68;68.24;98812.50;5058707;28;45376;-44
2022/11/17 07:07:32;;;;;;;;;0.00;0.00;;;;;12.66;68.54;98809.25;5060012;28;45181;-47
2022/11/17 07:09:58;;;;;;;;;0.00;0.00;;;;;12.64;68.59;98812.13;5060172;28;45343;-45
2022/11/17 07:12:23;;;;;;;;;3.67;0.67;;;;;12.63;68.77;98813.13;5059852;28;45982;-44
2022/11/17 07:14:48;;;;;;;;;0.67;0.67;;;;;12.62;68.75;98819.50;5060119;28;45215;-46
2022/11/17 07:17:14;;;;;;;;;3.67;0.67;;;;;12.64;68.48;98824.63;5060037;28;45223;-45
2022/11/17 07:19:39;;;;;;;;;0.67;0.00;;;;;12.63;68.79;98828.31;5060202;28;45356;-47
2022/11/17 07:22:04;;;;;;;;;3.00;0.00;;;;;12.59;69.01;98827.09;5059895;28;45189;-48
2022/11/17 07:24:30;;;;;;;;;1.33;0.00;;;;;12.60;69.26;98824.25;5059496;28;45500;-45
2022/11/17 07:26:55;;;;;;;;;1.67;1.00;;;;;12.59;68.97;98822.59;5059744;28;45307;-45
2022/11/17 07:29:20;;;;;;;;;0.33;0.33;;;;;12.62;68.69;98834.69;5058606;28;45410;-47
2022/11/17 07:31:46;;;;;;;;;2.00;1.33;;;;;12.62;69.24;98840.03;5058723;28;46089;-45
2022/11/17 07:34:11;;;;;;;;;2.33;1.00;;;;;12.62;68.63;98846.19;5057570;28;45430;-46
2022/11/17 07:36:36;;;;;;;;;0.00;0.00;;;;;12.64;68.98;98844.16;5059469;28;45220;-45
2022/11/17 07:39:04;;;;;;;;;2.67;1.00;;;;;12.58;68.65;98830.81;5059222;28;45385;-45
2022/11/17 07:41:29;;;;;;;;;3.67;1.67;;;;;12.68;68.92;98842.72;5057473;28;46566;-46
2022/11/17 07:43:54;;;;;;;;;1.67;1.00;;;;;12.72;68.68;98853.75;5057982;28;45315;-44
2022/11/17 07:46:20;;;;;;;;;4.00;0.00;;;;;12.76;68.78;98854.16;5057043;28;45379;-48
2022/11/17 07:48:45;;;;;;;;;3.67;1.00;;;;;12.78;69.03;98852.13;5056762;28;45399;-46
2022/11/17 07:51:12;;;;;;;;;2.33;0.67;;;;;12.80;69.25;98853.56;5056732;28;46307;-47
2022/11/17 07:53:38;;;;;;;;;3.67;1.00;;;;;12.78;68.86;98862.81;5056668;28;45434;-47
2022/11/17 07:56:09;;;;;;;;;3.00;1.00;;;;;12.81;68.69;98863.22;5056672;28;45683;-47
2022/11/17 07:58:35;;;;;;;;;1.33;0.67;;;;;12.80;69.08;98871.41;5056864;28;45659;-46
2022/11/17 08:01:05;;;;;;;;;2.33;1.33;;;;;12.85;69.23;98868.94;5055759;28;47044;-46
2022/11/17 08:03:30;;;;;;;;;2.00;0.00;;;;;12.87;69.09;98881.06;5056423;28;45506;-44
2022/11/17 08:05:56;;;;;;;;;1.00;1.00;;;;;12.87;69.00;98883.72;5056637;28;45502;-46
2022/11/17 08:08:22;;;;;;;;;2.00;2.00;;;;;12.90;69.82;98877.97;5056595;28;45594;-47
2022/11/17 08:10:47;;;;;;;;;2.00;0.00;;;;;12.89;69.91;98884.34;5056316;28;46119;-45
2022/11/17 08:13:14;;;;;;;;;6.67;1.67;;;;;12.92;70.38;98888.44;5056415;28;45327;-44
2022/11/17 08:15:39;;;;;;;;;1.33;0.00;;;;;12.86;70.58;98884.75;5056667;28;45497;-44
2022/11/17 08:18:05;;;;;;;;;2.33;2.33;;;;;12.87;70.61;98880.25;5056493;28;45342;-45
2022/11/17 08:20:30;;;;;;;;;1.00;0.00;;;;;12.87;70.59;98886.38;5056063;28;46329;-48
2022/11/17 08:22:56;;;;;;;;;4.67;1.00;;;;;12.86;70.87;98881.28;5056294;28;46581;-46
2022/11/17 08:25:24;;;;;;;;;3.00;1.00;;;;;12.89;70.84;98880.84;5056198;28;46158;-47
2022/11/17 08:27:53;;;;;;;;;4.67;1.00;;;;;12.91;70.53;98881.47;5055871;28;45506;-46
2022/11/17 08:30:19;;;;;;;;;0.00;0.00;;;;;12.94;70.19;98883.72;5056240;28;46205;-48
2022/11/17 08:32:50;;;;;;;;;0.00;0.00;;;;;12.94;70.51;98873.88;5055770;28;45388;-43
2022/11/17 08:35:17;;;;;;;;;2.00;1.33;;;;;12.99;70.35;98879.41;5055284;28;45545;-45
2022/11/17 08:37:42;;;;;;;;;4.67;1.00;;;;;13.01;69.98;98887.19;5055957;28;45484;-45
2022/11/17 08:40:08;;;;;;;;;3.33;0.00;;;;;13.01;69.53;98879.19;5055567;28;46158;-47
2022/11/17 08:42:33;;;;;;;;;2.00;1.00;;;;;12.97;69.87;98877.94;5055738;28;45457;-47
2022/11/17 08:44:59;;;;;;;;;0.00;0.00;;;;;12.96;69.67;98881.66;5056049;28;45302;-45
2022/11/17 08:47:24;;;;;;;;;1.00;1.00;;;;;13.06;69.21;98892.75;5055729;28;45339;-46
2022/11/17 08:49:50;;;;;;;;;1.33;0.67;;;;;13.07;69.74;98894.38;5055654;28;45477;-48
2022/11/17 08:52:15;;;;;;;;;2.00;0.00;;;;;13.10;69.96;98895.78;5055762;28;45528;-45
2022/11/17 08:54:41;;;;;;;;;1.00;0.67;;;;;13.10;69.34;98893.94;5055894;28;45406;-47
2022/11/17 08:57:06;;;;;;;;;1.00;1.00;;;;;13.15;69.85;98894.16;5054571;28;45368;-44
2022/11/17 08:59:31;;;;;;;;;3.00;2.00;;;;;13.15;69.33;98888.00;5055117;28;47008;-45
2022/11/17 09:01:56;;;;;;;;;1.00;0.00;;;;;13.19;69.60;98894.56;5055169;28;45475;-47
2022/11/17 09:04:22;;;;;;;;;3.00;2.00;;;;;13.21;69.63;98895.97;5055445;28;45426;-47
2022/11/17 09:06:47;;;;;;;;;2.67;1.00;;;;;13.26;69.07;98889.22;5055900;28;45951;-47
2022/11/17 09:09:12;;;;;;;;;2.00;1.00;;;;;13.16;69.63;98871.78;5055552;28;45937;-46
2022/11/17 09:11:38;;;;;;;;;6.33;2.00;;;;;13.28;69.19;98881.84;5055217;28;45413;-44
2022/11/17 09:14:05;;;;;;;;;3.00;1.67;;;;;13.22;69.48;98880.78;5054736;28;45511;-45
2022/11/17 09:16:31;;;;;;;;;1.67;0.33;;;;;13.31;69.31;98897.44;5055347;28;45586;-46
2022/11/17 09:18:57;;;;;;;;;7.00;2.00;;;;;13.30;69.58;98907.28;5055086;28;46191;-49
2022/11/17 09:21:23;;;;;;;;;3.67;1.00;;;;;13.29;69.31;98900.31;5055318;28;45900;-46
2022/11/17 09:23:49;;;;;;;;;4.00;2.00;;;;;13.26;69.57;98906.06;5055101;28;45497;-47
2022/11/17 09:26:15;;;;;;;;;4.33;1.33;;;;;13.23;70.19;98899.31;5055638;28;45457;-47
2022/11/17 09:28:43;;;;;;;;;3.00;1.33;;;;;13.23;70.42;98918.00;5055041;28;47213;-46
2022/11/17 09:31:15;;;;;;;;;1.67;1.00;;;;;13.22;70.70;98889.63;5055082;28;45407;-47
2022/11/17 09:33:40;;;;;;;;;6.33;3.00;;;;;13.21;70.93;98898.66;5055315;28;45443;-46
2022/11/17 09:36:06;;;;;;;;;1.67;0.67;;;;;13.11;71.52;98886.78;5055023;28;45432;-46
2022/11/17 09:38:32;;;;;;;;;0.00;0.00;;;;;13.15;71.32;98888.00;5055084;28;46925;-46
2022/11/17 09:40:58;;;;;;;;;2.33;0.00;;;;;13.01;71.28;98887.19;5054963;28;45606;-50
2022/11/17 09:43:29;;;;;;;;;2.67;0.00;;;;;13.04;71.14;98932.16;5055022;28;45387;-45
2022/11/17 09:46:12;;;;;;;;;2.00;1.33;;;;;12.96;71.59;98919.03;5055445;28;45619;-47
2022/11/17 09:48:47;;;;;;;;;0.00;0.00;;;;;12.88;72.30;98925.38;5054442;28;46497;-46
2022/11/17 09:51:17;;;;;;;;;0.00;0.00;;;;;12.85;72.61;98933.81;5054719;28;45366;-45
2022/11/17 09:54:04;;;;;;;;;2.33;1.00;;;;;12.90;73.19;98938.53;5054636;28;45499;-46
2022/11/17 09:56:30;;;;;;;;;0.33;0.33;;;;;12.96;73.54;98941.19;5054839;28;45847;-46
2022/11/17 09:59:03;;;;;;;;;2.00;1.00;;;;;13.05;73.86;98933.78;5054782;28;46247;-45
2022/11/17 10:01:29;;;;;;;;;1.00;0.00;;;;;13.22;73.37;98931.50;5054618;28;45414;-48
2022/11/17 10:03:57;;;;;;;;;3.00;0.67;;;;;13.40;72.85;98921.06;5054270;28;45414;-47
2022/11/17 10:06:28;;;;;;;;;1.67;1.00;;;;;13.58;73.67;98919.56;5055067;28;45530;-46
2022/11/17 10:09:04;;;;;;;;;3.00;1.33;;;;;13.80;72.94;98928.09;5054212;28;46263;-47
2022/11/17 10:11:33;;;;;;;;;3.33;1.00;;;;;14.05;72.48;98936.22;5054149;28;45598;-47
2022/11/17 10:14:02;;;;;;;;;6.33;3.00;;;;;14.23;71.78;98936.31;5054544;28;45350;-47
2022/11/17 10:16:28;;;;;;;;;5.67;1.67;;;;;14.26;71.19;98943.09;5054515;28;45588;-46
2022/11/17 10:18:53;;;;;;;;;3.00;1.67;;;;;14.30;70.70;98950.47;5054267;28;47064;-46
2022/11/17 10:21:18;;;;;;;;;6.33;3.00;;;;;14.29;70.69;98942.69;5054381;28;45419;-46
2022/11/17 10:23:55;;;;;;;;;2.33;2.00;;;;;14.35;70.24;98956.00;5054539;28;45318;-47
2022/11/17 10:26:20;;;;;;;;;0.00;0.00;;;;;14.45;70.54;98943.00;5054163;28;45466;-48
2022/11/17 10:28:47;;;;;;;;;5.00;3.00;;;;;14.63;70.04;98936.94;5054050;28;45396;-48
2022/11/17 10:31:14;;;;;;;;;3.00;2.00;;;;;14.85;69.76;98937.38;5053761;28;45407;-48
2022/11/17 10:33:42;;;;;;;;;3.00;1.33;;;;;15.08;68.80;98931.38;5054237;28;45394;-49
2022/11/17 10:36:29;;;;;;;;;2.00;1.00;;;;;15.27;67.62;98926.09;5054274;28;45433;-46
2022/11/17 10:38:57;;;;;;;;;1.67;1.00;;;;;15.43;66.91;98923.66;5053878;28;46515;-46
2022/11/17 10:41:26;;;;;;;;;3.00;0.67;;;;;15.55;66.20;98917.53;5053955;28;45482;-45
2022/11/17 10:44:14;;;;;;;;;1.00;0.25;;;;;15.67;65.32;98926.50;5053713;28;45488;-47
2022/11/17 10:46:53;;;;;;;;;3.00;2.00;;;;;15.76;64.92;98922.47;4972420;28;45370;-45
2022/11/17 10:49:28;;;;;;;;;0.00;0.00;;;;;15.82;63.68;98918.06;4971776;28;46019;-48
2022/11/17 10:52:14;;;;;;;;;3.75;0.25;;;;;15.83;64.61;98917.84;4972190;28;45504;-47
2022/11/17 10:54:39;;;;;;;;;1.50;1.50;;;;;15.86;63.72;98914.72;4970918;28;45709;-45
2022/11/17 10:57:12;;;;;;;;;1.00;1.00;;;;;16.02;63.56;98917.84;4971985;28;45518;-46
2022/11/17 10:59:49;;;;;;;;;0.00;0.00;;;;;16.05;63.12;98894.03;4972390;28;45581;-46
2022/11/17 11:02:35;;;;;;;;;1.00;0.75;;;;;16.25;63.46;98922.47;4971873;28;45354;-44
2022/11/17 11:05:12;;;;;;;;;3.25;0.25;;;;;16.28;62.41;98924.69;4955081;28;45529;-46
2022/11/17 11:07:38;;;;;;;;;0.00;0.00;;;;;16.24;61.63;98920.81;4972617;28;45901;-45
2022/11/17 11:10:44;;;;;;;;;4.00;0.00;;;;;16.17;62.63;98913.69;4971693;28;45464;-47
2022/11/17 11:13:39;;;;;;;;;6.00;2.00;;;;;16.09;62.18;98918.53;4916634;28;45446;-46
2022/11/17 11:16:05;;;;;;;;;4.00;1.00;;;;;15.90;61.81;98894.44;4933202;28;45427;-47
2022/11/17 11:18:31;;;;;;;;;3.00;3.00;;;;;15.88;62.08;98906.44;4932986;28;45499;-46
2022/11/17 11:21:17;;;;;;;;;1.00;1.00;;;;;15.82;62.24;98915.41;4933366;28;46238;-47
2022/11/17 11:23:55;;;;;;;;;2.00;0.00;;;;;15.70;62.55;98907.28;4962200;28;45514;-45
2022/11/17 11:26:38;;;;;;;;;3.00;1.00;;;;;15.62;62.61;98905.69;4989940;28;45695;-46
2022/11/17 11:29:54;;;;;;;;;1.00;1.00;;;;;15.52;62.97;98893.88;4991908;28;45582;-45
2022/11/17 11:32:51;;;;;;;;;3.50;2.00;;;;;15.43;62.76;98904.88;4971241;28;45560;-45
2022/11/17 11:35:29;;;;;;;;;1.25;0.00;;;;;15.37;62.84;98902.25;4971604;28;45461;-47
2022/11/17 11:38:10;;;;;;;;;2.50;1.00;;;;;15.37;62.60;98900.41;4975014;28;45426;-46
2022/11/17 11:40:39;;;;;;;;;0.67;0.67;;;;;15.45;62.49;98899.28;4974588;28;45521;-48
2022/11/17 11:43:26;;;;;;;;;1.00;1.00;;;;;15.58;62.00;98891.09;4977305;28;47325;-46
2022/11/17 11:46:36;;;;;;;;;0.00;0.00;;;;;15.79;61.44;98894.38;4991862;28;45529;-47
2022/11/17 11:49:20;;;;;;;;;0.75;0.50;;;;;16.08;60.94;98890.09;4994736;28;46118;-48
2022/11/17 11:51:48;;;;;;;;;1.00;1.00;;;;;16.38;59.88;98901.59;4994916;28;45569;-47
2022/11/17 11:54:38;;;;;;;;;1.75;1.00;;;;;16.63;59.26;98908.69;4994316;28;47128;-45
2022/11/17 11:57:05;;;;;;;;;1.25;1.00;;;;;16.91;58.31;98897.31;4993836;28;45432;-48
2022/11/17 11:59:40;;;;;;;;;1.50;1.50;;;;;16.93;57.59;98897.88;4994493;28;45482;-48
2022/11/17 12:02:12;;;;;;;;;2.00;0.75;;;;;16.86;57.51;98903.38;5004962;28;45409;-49
2022/11/17 12:04:52;;;;;;;;;1.50;1.00;;;;;16.70;56.50;98901.34;5056443;28;46448;-47
2022/11/17 12:07:42;;;;;;;;;1.25;1.00;;;;;16.60;56.88;98922.56;5056033;28;45512;-45
2022/11/17 12:10:19;;;;;;;;;1.75;1.75;;;;;16.45;56.64;98914.94;5054360;28;45769;-47
2022/11/17 12:12:46;;;;;;;;;0.50;0.00;;;;;16.27;56.20;98926.56;5054801;28;45620;-49
2022/11/17 12:15:17;;;;;;;;;0.00;0.00;;;;;16.08;57.38;98909.69;5056215;28;45496;-46
2022/11/17 12:17:58;;;;;;;;;1.00;1.00;;;;;15.96;57.18;98917.66;5056302;28;45355;-46